Fenn, Idaho
Current Conditions -  °F | °C
As of 12:35 PM on Monday 22 Dec 2014 (Local Time) from KGIC Reporting Station
Scattered Clouds Scattered Clouds  
Wind Chill: 34°   Ceiling: Unl
Heat Index: 41°   Visibility: 10mi
Dew Point: 26°   Wind: 13mph
Humidity: 55%   Direction: 300°WNW
Pressure: 30.23"   Gusts: NA
Location:  45.96°N, 116.26°W
Report Text: KGIC 222035Z AUTO 30011KT 10SM SCT050 SCT055 05/M03 A3023 RMK AO1 T00521033
Loading
Personal Weather Stations






























Interactive Weather Map New forecast layout! Learn more

10-Day Weather Forecast

Advertisements
Track Severe Weather on mobile